sensor_id;sensor_type;location;lat;lon;timestamp;temperature;humidity
59556;DHT22;45374;52.746;6.304;2022-10-31T00:00:44;11.90;99.90
59556;DHT22;45374;52.746;6.304;2022-10-31T00:03:09;11.90;99.90
59556;DHT22;45374;52.746;6.304;2022-10-31T00:05:34;11.90;99.90
59556;DHT22;45374;52.746;6.304;2022-10-31T00:08:00;11.80;99.90
59556;DHT22;45374;52.746;6.304;2022-10-31T00:10:25;11.80;99.90
59556;DHT22;45374;52.746;6.304;2022-10-31T00:12:51;11.70;99.90
59556;DHT22;45374;52.746;6.304;2022-10-31T00:15:16;11.80;99.90
59556;DHT22;45374;52.746;6.304;2022-10-31T00:17:42;11.80;99.90
59556;DHT22;45374;52.746;6.304;2022-10-31T00:20:07;11.70;99.90
59556;DHT22;45374;52.746;6.304;2022-10-31T00:22:33;11.80;99.90
59556;DHT22;45374;52.746;6.304;2022-10-31T00:24:59;11.70;99.90
59556;DHT22;45374;52.746;6.304;2022-10-31T00:27:24;11.70;99.90
59556;DHT22;45374;52.746;6.304;2022-10-31T00:29:49;11.60;99.90
59556;DHT22;45374;52.746;6.304;2022-10-31T00:32:15;11.60;99.90
59556;DHT22;45374;52.746;6.304;2022-10-31T00:34:40;11.60;99.90
59556;DHT22;45374;52.746;6.304;2022-10-31T00:37:06;11.60;99.90
59556;DHT22;45374;52.746;6.304;2022-10-31T00:39:31;11.60;99.90
59556;DHT22;45374;52.746;6.304;2022-10-31T00:41:57;11.50;99.90
59556;DHT22;45374;52.746;6.304;2022-10-31T00:44:22;11.50;99.90
59556;DHT22;45374;52.746;6.304;2022-10-31T00:46:48;11.40;99.90
59556;DHT22;45374;52.746;6.304;2022-10-31T00:49:13;11.40;99.90
59556;DHT22;45374;52.746;6.304;2022-10-31T00:51:39;11.40;99.90
59556;DHT22;45374;52.746;6.304;2022-10-31T00:54:04;11.40;99.90
59556;DHT22;45374;52.746;6.304;2022-10-31T00:56:30;11.40;99.90
59556;DHT22;45374;52.746;6.304;2022-10-31T00:58:55;11.40;99.90
59556;DHT22;45374;52.746;6.304;2022-10-31T01:01:21;11.60;99.90
59556;DHT22;45374;52.746;6.304;2022-10-31T01:03:46;11.50;99.90
59556;DHT22;45374;52.746;6.304;2022-10-31T01:06:12;11.50;99.90
59556;DHT22;45374;52.746;6.304;2022-10-31T01:08:38;11.50;99.90
59556;DHT22;45374;52.746;6.304;2022-10-31T01:11:08;11.50;99.90
59556;DHT22;45374;52.746;6.304;2022-10-31T01:13:35;11.50;99.90
59556;DHT22;45374;52.746;6.304;2022-10-31T01:16:00;11.50;99.90
59556;DHT22;45374;52.746;6.304;2022-10-31T01:18:26;11.40;99.90
59556;DHT22;45374;52.746;6.304;2022-10-31T01:23:27;11.40;99.90
59556;DHT22;45374;52.746;6.304;2022-10-31T01:26:03;11.40;99.90
59556;DHT22;45374;52.746;6.304;2022-10-31T01:28:29;11.20;99.90
59556;DHT22;45374;52.746;6.304;2022-10-31T01:30:55;11.30;99.90
59556;DHT22;45374;52.746;6.304;2022-10-31T01:33:20;11.20;99.90
59556;DHT22;45374;52.746;6.304;2022-10-31T01:35:46;11.20;99.90
59556;DHT22;45374;52.746;6.304;2022-10-31T01:38:11;11.10;99.90
59556;DHT22;45374;52.746;6.304;2022-10-31T01:40:37;11.00;99.90
59556;DHT22;45374;52.746;6.304;2022-10-31T01:43:02;10.80;99.90
59556;DHT22;45374;52.746;6.304;2022-10-31T01:45:27;10.80;99.90
59556;DHT22;45374;52.746;6.304;2022-10-31T01:47:53;10.70;99.90
59556;DHT22;45374;52.746;6.304;2022-10-31T01:50:26;10.70;99.90
59556;DHT22;45374;52.746;6.304;2022-10-31T01:52:53;10.60;99.90
59556;DHT22;45374;52.746;6.304;2022-10-31T01:58:16;10.50;99.90
59556;DHT22;45374;52.746;6.304;2022-10-31T02:00:45;10.30;99.90
59556;DHT22;45374;52.746;6.304;2022-10-31T02:03:11;10.30;99.90
59556;DHT22;45374;52.746;6.304;2022-10-31T02:05:37;10.40;99.90
59556;DHT22;45374;52.746;6.304;2022-10-31T02:10:29;10.30;99.90
59556;DHT22;45374;52.746;6.304;2022-10-31T02:12:56;10.40;99.90
59556;DHT22;45374;52.746;6.304;2022-10-31T02:15:23;10.30;99.90
59556;DHT22;45374;52.746;6.304;2022-10-31T02:17:48;10.40;99.90
59556;DHT22;45374;52.746;6.304;2022-10-31T02:20:18;10.30;99.90
59556;DHT22;45374;52.746;6.304;2022-10-31T02:28:11;10.30;99.90
59556;DHT22;45374;52.746;6.304;2022-10-31T02:33:30;10.30;99.90
59556;DHT22;45374;52.746;6.304;2022-10-31T02:36:01;10.30;99.90
59556;DHT22;45374;52.746;6.304;2022-10-31T02:38:41;10.20;99.90
59556;DHT22;45374;52.746;6.304;2022-10-31T02:43:54;10.00;99.90
59556;DHT22;45374;52.746;6.304;2022-10-31T02:49:06;9.90;99.90
59556;DHT22;45374;52.746;6.304;2022-10-31T02:51:33;9.90;99.90
59556;DHT22;45374;52.746;6.304;2022-10-31T02:53:59;9.80;99.90
59556;DHT22;45374;52.746;6.304;2022-10-31T02:56:24;9.80;99.90
59556;DHT22;45374;52.746;6.304;2022-10-31T02:59:08;9.80;99.90
59556;DHT22;45374;52.746;6.304;2022-10-31T03:04:16;9.80;99.90
59556;DHT22;45374;52.746;6.304;2022-10-31T03:06:45;9.80;99.90
59556;DHT22;45374;52.746;6.304;2022-10-31T03:09:17;9.80;99.90
59556;DHT22;45374;52.746;6.304;2022-10-31T03:12:04;9.80;99.90
59556;DHT22;45374;52.746;6.304;2022-10-31T03:14:38;9.80;99.90
59556;DHT22;45374;52.746;6.304;2022-10-31T03:17:06;9.70;99.90
59556;DHT22;45374;52.746;6.304;2022-10-31T03:19:34;9.70;99.90
59556;DHT22;45374;52.746;6.304;2022-10-31T03:22:02;9.60;99.90
59556;DHT22;45374;52.746;6.304;2022-10-31T03:24:33;9.60;99.90
59556;DHT22;45374;52.746;6.304;2022-10-31T03:27:00;9.60;99.90
59556;DHT22;45374;52.746;6.304;2022-10-31T03:29:28;9.40;99.90
59556;DHT22;45374;52.746;6.304;2022-10-31T03:31:55;9.40;99.90
59556;DHT22;45374;52.746;6.304;2022-10-31T03:34:22;9.40;99.90
59556;DHT22;45374;52.746;6.304;2022-10-31T03:36:52;9.30;99.90
59556;DHT22;45374;52.746;6.304;2022-10-31T03:39:19;9.20;99.90
59556;DHT22;45374;52.746;6.304;2022-10-31T03:44:46;8.90;99.90
59556;DHT22;45374;52.746;6.304;2022-10-31T03:47:13;8.70;99.90
59556;DHT22;45374;52.746;6.304;2022-10-31T03:49:39;8.70;99.90
59556;DHT22;45374;52.746;6.304;2022-10-31T03:54:38;8.70;99.90
59556;DHT22;45374;52.746;6.304;2022-10-31T03:57:28;8.70;99.90
59556;DHT22;45374;52.746;6.304;2022-10-31T03:59:59;8.70;99.90
59556;DHT22;45374;52.746;6.304;2022-10-31T04:02:26;8.80;99.90
59556;DHT22;45374;52.746;6.304;2022-10-31T04:04:54;8.70;99.90
59556;DHT22;45374;52.746;6.304;2022-10-31T04:07:19;8.70;99.90
59556;DHT22;45374;52.746;6.304;2022-10-31T04:09:48;8.80;99.90
59556;DHT22;45374;52.746;6.304;2022-10-31T04:12:15;8.80;99.90
59556;DHT22;45374;52.746;6.304;2022-10-31T04:14:43;8.70;99.90
59556;DHT22;45374;52.746;6.304;2022-10-31T04:17:11;8.70;99.90
59556;DHT22;45374;52.746;6.304;2022-10-31T04:19:37;8.50;99.90
59556;DHT22;45374;52.746;6.304;2022-10-31T04:22:03;8.30;99.90
59556;DHT22;45374;52.746;6.304;2022-10-31T04:24:28;8.10;99.90
59556;DHT22;45374;52.746;6.304;2022-10-31T04:26:54;7.90;99.90
59556;DHT22;45374;52.746;6.304;2022-10-31T04:29:19;7.80;99.90
59556;DHT22;45374;52.746;6.304;2022-10-31T04:31:45;7.90;99.90
59556;DHT22;45374;52.746;6.304;2022-10-31T04:34:10;7.90;99.90
59556;DHT22;45374;52.746;6.304;2022-10-31T04:36:36;7.90;99.90
59556;DHT22;45374;52.746;6.304;2022-10-31T04:39:01;7.90;99.90
59556;DHT22;45374;52.746;6.304;2022-10-31T04:41:27;8.00;99.90
59556;DHT22;45374;52.746;6.304;2022-10-31T04:43:52;8.00;99.90
59556;DHT22;45374;52.746;6.304;2022-10-31T04:46:18;8.10;99.90
59556;DHT22;45374;52.746;6.304;2022-10-31T04:48:43;8.20;99.90
59556;DHT22;45374;52.746;6.304;2022-10-31T04:51:08;8.30;99.90
59556;DHT22;45374;52.746;6.304;2022-10-31T04:53:34;8.30;99.90
59556;DHT22;45374;52.746;6.304;2022-10-31T04:55:59;8.40;99.90
59556;DHT22;45374;52.746;6.304;2022-10-31T04:58:26;8.40;99.90
59556;DHT22;45374;52.746;6.304;2022-10-31T05:00:55;8.40;99.90
59556;DHT22;45374;52.746;6.304;2022-10-31T05:03:21;8.50;99.90
59556;DHT22;45374;52.746;6.304;2022-10-31T05:05:46;8.50;99.90
59556;DHT22;45374;52.746;6.304;2022-10-31T05:08:12;8.40;99.90
59556;DHT22;45374;52.746;6.304;2022-10-31T05:10:37;8.20;99.90
59556;DHT22;45374;52.746;6.304;2022-10-31T05:13:03;8.20;99.90
59556;DHT22;45374;52.746;6.304;2022-10-31T05:15:29;8.20;99.90
59556;DHT22;45374;52.746;6.304;2022-10-31T05:17:54;8.30;99.90
59556;DHT22;45374;52.746;6.304;2022-10-31T05:20:21;8.30;99.90
59556;DHT22;45374;52.746;6.304;2022-10-31T05:22:48;8.30;99.90
59556;DHT22;45374;52.746;6.304;2022-10-31T05:25:14;8.40;99.90
59556;DHT22;45374;52.746;6.304;2022-10-31T05:27:47;8.40;99.90
59556;DHT22;45374;52.746;6.304;2022-10-31T05:30:15;8.50;99.90
59556;DHT22;45374;52.746;6.304;2022-10-31T05:32:41;8.40;99.90
59556;DHT22;45374;52.746;6.304;2022-10-31T05:35:07;8.40;99.90
59556;DHT22;45374;52.746;6.304;2022-10-31T05:37:34;8.40;99.90
59556;DHT22;45374;52.746;6.304;2022-10-31T05:39:59;8.30;99.90
59556;DHT22;45374;52.746;6.304;2022-10-31T05:42:25;8.30;99.90
59556;DHT22;45374;52.746;6.304;2022-10-31T05:44:50;8.30;99.90
59556;DHT22;45374;52.746;6.304;2022-10-31T05:47:16;8.20;99.90
59556;DHT22;45374;52.746;6.304;2022-10-31T05:49:41;8.20;99.90
59556;DHT22;45374;52.746;6.304;2022-10-31T05:52:07;8.20;99.90
59556;DHT22;45374;52.746;6.304;2022-10-31T05:54:32;8.20;99.90
59556;DHT22;45374;52.746;6.304;2022-10-31T05:56:58;8.20;99.90
59556;DHT22;45374;52.746;6.304;2022-10-31T05:59:23;8.20;99.90
59556;DHT22;45374;52.746;6.304;2022-10-31T06:01:49;8.20;99.90
59556;DHT22;45374;52.746;6.304;2022-10-31T06:04:14;8.10;99.90
59556;DHT22;45374;52.746;6.304;2022-10-31T06:06:39;8.10;99.90
59556;DHT22;45374;52.746;6.304;2022-10-31T06:09:05;8.10;99.90
59556;DHT22;45374;52.746;6.304;2022-10-31T06:11:30;8.00;99.90
59556;DHT22;45374;52.746;6.304;2022-10-31T06:13:56;8.10;99.90
59556;DHT22;45374;52.746;6.304;2022-10-31T06:16:21;8.00;99.90
59556;DHT22;45374;52.746;6.304;2022-10-31T06:18:47;8.10;99.90
59556;DHT22;45374;52.746;6.304;2022-10-31T06:21:12;8.00;99.90
59556;DHT22;45374;52.746;6.304;2022-10-31T06:23:38;8.00;99.90
59556;DHT22;45374;52.746;6.304;2022-10-31T06:26:03;8.00;99.90
59556;DHT22;45374;52.746;6.304;2022-10-31T06:28:29;8.00;99.90
59556;DHT22;45374;52.746;6.304;2022-10-31T06:30:54;8.00;99.90
59556;DHT22;45374;52.746;6.304;2022-10-31T06:33:20;8.00;99.90
59556;DHT22;45374;52.746;6.304;2022-10-31T06:35:45;8.00;99.90
59556;DHT22;45374;52.746;6.304;2022-10-31T06:38:12;8.00;99.90
59556;DHT22;45374;52.746;6.304;2022-10-31T06:40:37;8.00;99.90
59556;DHT22;45374;52.746;6.304;2022-10-31T06:43:03;8.00;99.90
59556;DHT22;45374;52.746;6.304;2022-10-31T06:45:28;8.00;99.90
59556;DHT22;45374;52.746;6.304;2022-10-31T06:47:54;8.00;99.90
59556;DHT22;45374;52.746;6.304;2022-10-31T06:50:20;7.90;99.90
59556;DHT22;45374;52.746;6.304;2022-10-31T06:52:53;7.90;99.90
59556;DHT22;45374;52.746;6.304;2022-10-31T06:55:19;7.90;99.90
59556;DHT22;45374;52.746;6.304;2022-10-31T06:57:49;7.90;99.90
59556;DHT22;45374;52.746;6.304;2022-10-31T07:00:15;7.90;99.90
59556;DHT22;45374;52.746;6.304;2022-10-31T07:02:40;7.90;99.90
59556;DHT22;45374;52.746;6.304;2022-10-31T07:05:06;7.90;99.90
59556;DHT22;45374;52.746;6.304;2022-10-31T07:07:31;7.90;99.90
59556;DHT22;45374;52.746;6.304;2022-10-31T07:09:57;7.90;99.90
59556;DHT22;45374;52.746;6.304;2022-10-31T07:12:22;7.90;99.90
59556;DHT22;45374;52.746;6.304;2022-10-31T07:14:48;7.90;99.90
59556;DHT22;45374;52.746;6.304;2022-10-31T07:17:13;7.90;99.90
59556;DHT22;45374;52.746;6.304;2022-10-31T07:19:39;7.90;99.90
59556;DHT22;45374;52.746;6.304;2022-10-31T07:22:04;8.00;99.90
59556;DHT22;45374;52.746;6.304;2022-10-31T07:24:30;7.90;99.90
59556;DHT22;45374;52.746;6.304;2022-10-31T07:26:55;7.90;99.90
59556;DHT22;45374;52.746;6.304;2022-10-31T07:29:21;7.90;99.90
59556;DHT22;45374;52.746;6.304;2022-10-31T07:31:46;7.90;99.90
59556;DHT22;45374;52.746;6.304;2022-10-31T07:34:12;7.90;99.90
59556;DHT22;45374;52.746;6.304;2022-10-31T07:36:37;7.90;99.90
59556;DHT22;45374;52.746;6.304;2022-10-31T07:39:03;7.90;99.90
59556;DHT22;45374;52.746;6.304;2022-10-31T07:41:28;8.00;99.90
59556;DHT22;45374;52.746;6.304;2022-10-31T07:43:54;8.10;99.90
59556;DHT22;45374;52.746;6.304;2022-10-31T07:46:21;8.10;99.90
59556;DHT22;45374;52.746;6.304;2022-10-31T07:48:46;8.20;99.90
59556;DHT22;45374;52.746;6.304;2022-10-31T07:51:12;8.30;99.90
59556;DHT22;45374;52.746;6.304;2022-10-31T07:53:37;8.30;99.90
59556;DHT22;45374;52.746;6.304;2022-10-31T07:56:03;8.40;99.90
59556;DHT22;45374;52.746;6.304;2022-10-31T07:58:28;8.40;99.90
59556;DHT22;45374;52.746;6.304;2022-10-31T08:00:54;8.60;99.90
59556;DHT22;45374;52.746;6.304;2022-10-31T08:03:19;8.50;99.90
59556;DHT22;45374;52.746;6.304;2022-10-31T08:05:45;8.70;99.90
59556;DHT22;45374;52.746;6.304;2022-10-31T08:08:11;8.70;99.90
59556;DHT22;45374;52.746;6.304;2022-10-31T08:10:37;8.90;99.90
59556;DHT22;45374;52.746;6.304;2022-10-31T08:13:07;9.00;99.90
59556;DHT22;45374;52.746;6.304;2022-10-31T08:15:33;9.10;99.90
59556;DHT22;45374;52.746;6.304;2022-10-31T08:18:02;9.20;99.90
59556;DHT22;45374;52.746;6.304;2022-10-31T08:20:27;9.30;99.90
59556;DHT22;45374;52.746;6.304;2022-10-31T08:22:57;9.40;99.90
59556;DHT22;45374;52.746;6.304;2022-10-31T08:25:23;9.40;99.90
59556;DHT22;45374;52.746;6.304;2022-10-31T08:27:52;9.60;99.90
59556;DHT22;45374;52.746;6.304;2022-10-31T08:30:19;9.70;99.90
59556;DHT22;45374;52.746;6.304;2022-10-31T08:32:44;9.90;99.90
59556;DHT22;45374;52.746;6.304;2022-10-31T08:35:10;10.00;99.90
59556;DHT22;45374;52.746;6.304;2022-10-31T08:37:35;10.00;99.90
59556;DHT22;45374;52.746;6.304;2022-10-31T08:40:01;10.10;99.90
59556;DHT22;45374;52.746;6.304;2022-10-31T08:42:26;10.20;99.90
59556;DHT22;45374;52.746;6.304;2022-10-31T08:44:52;10.30;99.90
59556;DHT22;45374;52.746;6.304;2022-10-31T08:47:17;10.30;99.90
59556;DHT22;45374;52.746;6.304;2022-10-31T08:49:43;10.30;99.90
59556;DHT22;45374;52.746;6.304;2022-10-31T08:52:08;10.40;99.90
59556;DHT22;45374;52.746;6.304;2022-10-31T08:54:34;10.40;99.90
59556;DHT22;45374;52.746;6.304;2022-10-31T08:56:59;10.40;99.90
59556;DHT22;45374;52.746;6.304;2022-10-31T08:59:25;10.40;99.90
59556;DHT22;45374;52.746;6.304;2022-10-31T09:01:50;10.50;99.90
59556;DHT22;45374;52.746;6.304;2022-10-31T09:04:16;10.60;99.90
59556;DHT22;45374;52.746;6.304;2022-10-31T09:06:41;10.70;99.90
59556;DHT22;45374;52.746;6.304;2022-10-31T09:09:07;10.80;99.90
59556;DHT22;45374;52.746;6.304;2022-10-31T09:11:32;10.90;99.90
59556;DHT22;45374;52.746;6.304;2022-10-31T09:13:58;10.90;99.90
59556;DHT22;45374;52.746;6.304;2022-10-31T09:16:23;11.10;99.90
59556;DHT22;45374;52.746;6.304;2022-10-31T09:18:49;11.20;99.90
59556;DHT22;45374;52.746;6.304;2022-10-31T09:21:14;11.20;99.90
59556;DHT22;45374;52.746;6.304;2022-10-31T09:23:40;11.30;99.90
59556;DHT22;45374;52.746;6.304;2022-10-31T09:26:05;11.30;99.90
59556;DHT22;45374;52.746;6.304;2022-10-31T09:28:31;11.40;99.90
59556;DHT22;45374;52.746;6.304;2022-10-31T09:30:57;11.40;99.90
59556;DHT22;45374;52.746;6.304;2022-10-31T09:33:23;11.50;99.90
59556;DHT22;45374;52.746;6.304;2022-10-31T09:35:48;11.60;99.90
59556;DHT22;45374;52.746;6.304;2022-10-31T09:38:15;11.60;99.90
59556;DHT22;45374;52.746;6.304;2022-10-31T09:40:48;11.70;99.90
59556;DHT22;45374;52.746;6.304;2022-10-31T09:50:45;12.10;99.90
59556;DHT22;45374;52.746;6.304;2022-10-31T09:55:42;12.20;99.90
59556;DHT22;45374;52.746;6.304;2022-10-31T09:58:13;12.10;99.90
59556;DHT22;45374;52.746;6.304;2022-10-31T10:00:39;12.10;99.90
59556;DHT22;45374;52.746;6.304;2022-10-31T10:03:14;12.10;99.90
59556;DHT22;45374;52.746;6.304;2022-10-31T10:08:30;12.20;99.90
59556;DHT22;45374;52.746;6.304;2022-10-31T10:21:09;12.60;99.90
59556;DHT22;45374;52.746;6.304;2022-10-31T10:26:31;12.90;99.90
59556;DHT22;45374;52.746;6.304;2022-10-31T10:31:39;13.10;99.90
59556;DHT22;45374;52.746;6.304;2022-10-31T10:39:36;13.50;99.90
59556;DHT22;45374;52.746;6.304;2022-10-31T10:42:07;13.70;99.90
59556;DHT22;45374;52.746;6.304;2022-10-31T10:44:53;13.80;99.90
59556;DHT22;45374;52.746;6.304;2022-10-31T10:47:44;13.90;99.90
59556;DHT22;45374;52.746;6.304;2022-10-31T10:50:14;14.00;99.90
59556;DHT22;45374;52.746;6.304;2022-10-31T10:52:44;14.10;99.90
59556;DHT22;45374;52.746;6.304;2022-10-31T11:00:38;14.40;99.90
59556;DHT22;45374;52.746;6.304;2022-10-31T11:02:56;14.50;99.90
59556;DHT22;45374;52.746;6.304;2022-10-31T11:05:28;14.50;99.90
59556;DHT22;45374;52.746;6.304;2022-10-31T11:07:55;14.60;99.90
59556;DHT22;45374;52.746;6.304;2022-10-31T11:10:21;14.70;99.90
59556;DHT22;45374;52.746;6.304;2022-10-31T11:13:29;14.80;99.90
59556;DHT22;45374;52.746;6.304;2022-10-31T11:15:36;14.90;99.90
59556;DHT22;45374;52.746;6.304;2022-10-31T11:18:03;15.00;99.90
59556;DHT22;45374;52.746;6.304;2022-10-31T11:20:33;15.00;99.90
59556;DHT22;45374;52.746;6.304;2022-10-31T11:23:01;14.90;99.90
59556;DHT22;45374;52.746;6.304;2022-10-31T11:25:27;15.00;99.90
59556;DHT22;45374;52.746;6.304;2022-10-31T11:28:07;15.00;99.90
59556;DHT22;45374;52.746;6.304;2022-10-31T11:30:44;15.10;99.90
59556;DHT22;45374;52.746;6.304;2022-10-31T11:33:16;15.20;99.90
59556;DHT22;45374;52.746;6.304;2022-10-31T11:35:42;15.20;99.90
59556;DHT22;45374;52.746;6.304;2022-10-31T11:38:12;15.20;99.90
59556;DHT22;45374;52.746;6.304;2022-10-31T11:40:38;15.30;99.90
59556;DHT22;45374;52.746;6.304;2022-10-31T11:43:04;15.20;99.90
59556;DHT22;45374;52.746;6.304;2022-10-31T11:45:31;15.20;99.90
59556;DHT22;45374;52.746;6.304;2022-10-31T11:47:57;15.30;99.90
59556;DHT22;45374;52.746;6.304;2022-10-31T11:50:25;15.30;99.90
59556;DHT22;45374;52.746;6.304;2022-10-31T11:52:55;15.40;99.90
59556;DHT22;45374;52.746;6.304;2022-10-31T11:57:47;15.50;99.90
59556;DHT22;45374;52.746;6.304;2022-10-31T12:00:23;15.50;99.90
59556;DHT22;45374;52.746;6.304;2022-10-31T12:02:49;15.50;99.90
59556;DHT22;45374;52.746;6.304;2022-10-31T12:05:18;15.50;99.90
59556;DHT22;45374;52.746;6.304;2022-10-31T12:07:47;15.50;99.90
59556;DHT22;45374;52.746;6.304;2022-10-31T12:10:14;15.50;99.90
59556;DHT22;45374;52.746;6.304;2022-10-31T12:12:52;15.60;99.90
59556;DHT22;45374;52.746;6.304;2022-10-31T12:15:33;15.70;99.90
59556;DHT22;45374;52.746;6.304;2022-10-31T12:26:16;15.80;99.90
59556;DHT22;45374;52.746;6.304;2022-10-31T12:31:16;15.80;99.90
59556;DHT22;45374;52.746;6.304;2022-10-31T12:34:09;15.80;99.90
59556;DHT22;45374;52.746;6.304;2022-10-31T12:36:51;15.70;99.90
59556;DHT22;45374;52.746;6.304;2022-10-31T12:39:24;15.60;99.90
59556;DHT22;45374;52.746;6.304;2022-10-31T12:49:52;15.60;99.90
59556;DHT22;45374;52.746;6.304;2022-10-31T12:55:14;15.70;99.90
59556;DHT22;45374;52.746;6.304;2022-10-31T12:57:47;15.80;99.90
59556;DHT22;45374;52.746;6.304;2022-10-31T13:00:15;15.80;99.90
59556;DHT22;45374;52.746;6.304;2022-10-31T13:08:04;16.00;99.90
59556;DHT22;45374;52.746;6.304;2022-10-31T13:10:36;16.10;99.90
59556;DHT22;45374;52.746;6.304;2022-10-31T13:13:16;16.10;99.90
59556;DHT22;45374;52.746;6.304;2022-10-31T13:15:50;16.00;99.90
59556;DHT22;45374;52.746;6.304;2022-10-31T13:18:23;16.00;99.90
59556;DHT22;45374;52.746;6.304;2022-10-31T13:20:50;15.90;99.90
59556;DHT22;45374;52.746;6.304;2022-10-31T13:23:20;15.80;99.90
59556;DHT22;45374;52.746;6.304;2022-10-31T13:25:49;15.80;99.90
59556;DHT22;45374;52.746;6.304;2022-10-31T13:30:50;15.80;99.90
59556;DHT22;45374;52.746;6.304;2022-10-31T13:33:21;15.80;99.90
59556;DHT22;45374;52.746;6.304;2022-10-31T13:38:25;15.60;99.90
59556;DHT22;45374;52.746;6.304;2022-10-31T13:41:00;15.60;99.90
59556;DHT22;45374;52.746;6.304;2022-10-31T13:46:24;15.60;99.90
59556;DHT22;45374;52.746;6.304;2022-10-31T13:48:50;15.50;99.90
59556;DHT22;45374;52.746;6.304;2022-10-31T13:51:23;15.40;99.90
59556;DHT22;45374;52.746;6.304;2022-10-31T13:56:22;15.40;99.90
59556;DHT22;45374;52.746;6.304;2022-10-31T13:58:56;15.40;99.90
59556;DHT22;45374;52.746;6.304;2022-10-31T14:01:22;15.40;99.90
59556;DHT22;45374;52.746;6.304;2022-10-31T14:04:05;15.40;99.90
59556;DHT22;45374;52.746;6.304;2022-10-31T14:07:15;15.50;99.90
59556;DHT22;45374;52.746;6.304;2022-10-31T14:09:27;15.50;99.90
59556;DHT22;45374;52.746;6.304;2022-10-31T14:11:53;15.40;99.90
59556;DHT22;45374;52.746;6.304;2022-10-31T14:14:20;15.40;99.90
59556;DHT22;45374;52.746;6.304;2022-10-31T14:16:52;15.40;99.90
59556;DHT22;45374;52.746;6.304;2022-10-31T14:19:19;15.40;99.90
59556;DHT22;45374;52.746;6.304;2022-10-31T14:21:45;15.40;99.90
59556;DHT22;45374;52.746;6.304;2022-10-31T14:26:56;15.40;99.90
59556;DHT22;45374;52.746;6.304;2022-10-31T14:29:24;15.30;99.90
59556;DHT22;45374;52.746;6.304;2022-10-31T14:34:20;15.30;99.90
59556;DHT22;45374;52.746;6.304;2022-10-31T14:39:33;15.20;99.90
59556;DHT22;45374;52.746;6.304;2022-10-31T14:42:19;15.00;99.90
59556;DHT22;45374;52.746;6.304;2022-10-31T14:50:47;15.00;99.90
59556;DHT22;45374;52.746;6.304;2022-10-31T14:52:40;15.00;99.90
59556;DHT22;45374;52.746;6.304;2022-10-31T14:55:10;15.00;99.90
59556;DHT22;45374;52.746;6.304;2022-10-31T14:57:37;14.90;99.90
59556;DHT22;45374;52.746;6.304;2022-10-31T15:00:04;15.00;99.90
59556;DHT22;45374;52.746;6.304;2022-10-31T15:02:36;15.00;99.90
59556;DHT22;45374;52.746;6.304;2022-10-31T15:05:08;14.90;99.90
59556;DHT22;45374;52.746;6.304;2022-10-31T15:07:34;14.90;99.90
59556;DHT22;45374;52.746;6.304;2022-10-31T15:10:04;14.90;99.90
59556;DHT22;45374;52.746;6.304;2022-10-31T15:12:32;14.80;99.90
59556;DHT22;45374;52.746;6.304;2022-10-31T15:14:57;14.80;99.90
59556;DHT22;45374;52.746;6.304;2022-10-31T15:17:26;14.70;99.90
59556;DHT22;45374;52.746;6.304;2022-10-31T15:19:52;14.80;99.90
59556;DHT22;45374;52.746;6.304;2022-10-31T15:22:18;14.80;99.90
59556;DHT22;45374;52.746;6.304;2022-10-31T15:24:44;14.70;99.90
59556;DHT22;45374;52.746;6.304;2022-10-31T15:27:15;14.70;99.90
59556;DHT22;45374;52.746;6.304;2022-10-31T15:29:48;14.60;99.90
59556;DHT22;45374;52.746;6.304;2022-10-31T15:32:22;14.60;99.90
59556;DHT22;45374;52.746;6.304;2022-10-31T15:34:48;14.60;99.90
59556;DHT22;45374;52.746;6.304;2022-10-31T15:37:15;14.40;99.90
59556;DHT22;45374;52.746;6.304;2022-10-31T15:39:41;14.40;99.90
59556;DHT22;45374;52.746;6.304;2022-10-31T15:42:21;14.30;99.90
59556;DHT22;45374;52.746;6.304;2022-10-31T15:45:15;14.30;99.90
59556;DHT22;45374;52.746;6.304;2022-10-31T15:47:45;14.20;99.90
59556;DHT22;45374;52.746;6.304;2022-10-31T15:53:17;14.00;99.90
59556;DHT22;45374;52.746;6.304;2022-10-31T15:55:50;14.00;99.90
59556;DHT22;45374;52.746;6.304;2022-10-31T15:58:17;14.00;99.90
59556;DHT22;45374;52.746;6.304;2022-10-31T16:00:42;14.00;99.90
59556;DHT22;45374;52.746;6.304;2022-10-31T16:08:24;13.90;99.90
59556;DHT22;45374;52.746;6.304;2022-10-31T16:10:51;13.90;99.90
59556;DHT22;45374;52.746;6.304;2022-10-31T16:13:17;13.90;99.90
59556;DHT22;45374;52.746;6.304;2022-10-31T16:15:49;13.80;99.90
59556;DHT22;45374;52.746;6.304;2022-10-31T16:18:16;13.80;99.90
59556;DHT22;45374;52.746;6.304;2022-10-31T16:20:47;13.80;99.90
59556;DHT22;45374;52.746;6.304;2022-10-31T16:23:16;13.80;99.90
59556;DHT22;45374;52.746;6.304;2022-10-31T16:25:42;13.80;99.90
59556;DHT22;45374;52.746;6.304;2022-10-31T16:28:21;13.80;99.90
59556;DHT22;45374;52.746;6.304;2022-10-31T16:30:49;13.80;99.90
59556;DHT22;45374;52.746;6.304;2022-10-31T16:33:22;13.70;99.90
59556;DHT22;45374;52.746;6.304;2022-10-31T16:35:48;13.80;99.90
59556;DHT22;45374;52.746;6.304;2022-10-31T16:38:14;13.80;99.90
59556;DHT22;45374;52.746;6.304;2022-10-31T16:40:39;13.80;99.90
59556;DHT22;45374;52.746;6.304;2022-10-31T16:43:08;13.70;99.90
59556;DHT22;45374;52.746;6.304;2022-10-31T16:45:34;13.70;99.90
59556;DHT22;45374;52.746;6.304;2022-10-31T16:48:09;13.70;99.90
59556;DHT22;45374;52.746;6.304;2022-10-31T16:50:36;13.70;99.90
59556;DHT22;45374;52.746;6.304;2022-10-31T16:53:02;13.70;99.90
59556;DHT22;45374;52.746;6.304;2022-10-31T16:55:27;13.70;99.90
59556;DHT22;45374;52.746;6.304;2022-10-31T16:57:54;13.70;99.90
59556;DHT22;45374;52.746;6.304;2022-10-31T17:00:21;13.70;99.90
59556;DHT22;45374;52.746;6.304;2022-10-31T17:02:47;13.70;99.90
59556;DHT22;45374;52.746;6.304;2022-10-31T17:05:14;13.70;99.90
59556;DHT22;45374;52.746;6.304;2022-10-31T17:07:40;13.60;99.90
59556;DHT22;45374;52.746;6.304;2022-10-31T17:10:06;13.70;99.90
59556;DHT22;45374;52.746;6.304;2022-10-31T17:12:32;13.70;99.90
59556;DHT22;45374;52.746;6.304;2022-10-31T17:14:57;13.70;99.90
59556;DHT22;45374;52.746;6.304;2022-10-31T17:17:23;13.70;99.90
59556;DHT22;45374;52.746;6.304;2022-10-31T17:19:48;13.70;99.90
59556;DHT22;45374;52.746;6.304;2022-10-31T17:22:14;13.80;99.90
59556;DHT22;45374;52.746;6.304;2022-10-31T17:24:39;13.70;99.90
59556;DHT22;45374;52.746;6.304;2022-10-31T17:27:05;13.80;99.90
59556;DHT22;45374;52.746;6.304;2022-10-31T17:29:32;13.70;99.90
59556;DHT22;45374;52.746;6.304;2022-10-31T17:31:59;13.70;99.90
59556;DHT22;45374;52.746;6.304;2022-10-31T17:34:26;13.70;99.90
59556;DHT22;45374;52.746;6.304;2022-10-31T17:36:51;13.70;99.90
59556;DHT22;45374;52.746;6.304;2022-10-31T17:39:17;13.70;99.90
59556;DHT22;45374;52.746;6.304;2022-10-31T17:41:43;13.80;99.90
59556;DHT22;45374;52.746;6.304;2022-10-31T17:44:09;13.70;99.90
59556;DHT22;45374;52.746;6.304;2022-10-31T17:46:35;13.80;99.90
59556;DHT22;45374;52.746;6.304;2022-10-31T17:49:00;13.70;99.90
59556;DHT22;45374;52.746;6.304;2022-10-31T17:51:26;13.80;99.90